createdAt,value
2019-05-11T00:00:55.355Z,2.00
2019-05-11T00:03:44.800Z,1.98
2019-05-11T00:06:33.398Z,1.92
2019-05-11T00:09:22.631Z,2.47
2019-05-11T00:12:11.461Z,2.05
2019-05-11T00:15:00.880Z,2.20
2019-05-11T00:17:51.016Z,2.67
2019-05-11T00:20:40.689Z,2.30
2019-05-11T00:23:29.949Z,2.10
2019-05-11T00:26:19.383Z,1.98
2019-05-11T00:29:09.035Z,2.10
2019-05-11T00:31:58.434Z,2.33
2019-05-11T00:34:47.842Z,1.85
2019-05-11T00:37:36.966Z,2.10
2019-05-11T00:40:26.499Z,2.20
2019-05-11T00:43:16.074Z,2.22
2019-05-11T00:46:05.223Z,2.10
2019-05-11T00:48:54.609Z,2.00
2019-05-11T00:51:43.079Z,2.47
2019-05-11T00:54:32.513Z,2.00
2019-05-11T00:57:21.600Z,2.80
2019-05-11T01:00:10.571Z,2.25
2019-05-11T01:02:59.805Z,2.22
2019-05-11T01:05:48.962Z,2.33
2019-05-11T01:08:38.929Z,2.20
2019-05-11T01:11:27.706Z,2.17
2019-05-11T01:14:16.604Z,2.45
2019-05-11T01:17:06.055Z,2.30
2019-05-11T01:19:55.635Z,2.35
2019-05-11T01:22:44.831Z,2.10
2019-05-11T01:25:33.732Z,2.08
2019-05-11T01:28:23.259Z,2.80
2019-05-11T01:31:13.832Z,2.00
2019-05-11T01:34:03.190Z,2.30
2019-05-11T01:36:52.391Z,1.90
2019-05-11T01:39:41.908Z,2.00
2019-05-11T01:42:30.425Z,2.27
2019-05-11T01:45:20.576Z,2.50
2019-05-11T01:48:10.446Z,2.25
2019-05-11T01:50:59.858Z,2.08
2019-05-11T01:53:48.811Z,1.77
2019-05-11T01:56:38.149Z,1.98
2019-05-11T01:59:27.448Z,2.12
2019-05-11T02:02:16.305Z,2.27
2019-05-11T02:05:23.031Z,2.08
2019-05-11T02:08:11.727Z,1.95
2019-05-11T02:11:14.819Z,1.80
2019-05-11T02:13:50.901Z,2.40
2019-05-11T02:16:39.761Z,2.40
2019-05-11T02:19:29.367Z,2.00
2019-05-11T02:22:18.732Z,2.15
2019-05-11T02:25:08.440Z,2.40
2019-05-11T02:27:57.801Z,2.42
2019-05-11T02:30:47.652Z,2.52
2019-05-11T02:33:36.836Z,1.90
2019-05-11T02:36:25.637Z,1.92
2019-05-11T02:39:14.926Z,1.95
2019-05-11T02:42:03.751Z,2.02
2019-05-11T02:44:53.135Z,1.80
2019-05-11T02:47:42.805Z,1.95
2019-05-11T02:50:32.135Z,2.20
2019-05-11T02:53:21.397Z,1.70
2019-05-11T02:56:10.717Z,1.90
2019-05-11T02:59:00.264Z,2.55
2019-05-11T03:01:49.464Z,2.10
2019-05-11T03:04:38.955Z,2.00
2019-05-11T03:07:27.818Z,1.82
2019-05-11T03:10:17.039Z,1.92
2019-05-11T03:13:06.398Z,1.98
2019-05-11T03:15:56.133Z,1.90
2019-05-11T03:18:45.831Z,1.65
2019-05-11T03:21:35.209Z,1.98
2019-05-11T03:24:24.200Z,1.80
2019-05-11T03:27:13.336Z,2.02
2019-05-11T03:30:02.619Z,1.90
2019-05-11T03:32:51.894Z,1.90
2019-05-11T03:35:42.482Z,2.05
2019-05-11T03:38:32.103Z,2.33
2019-05-11T03:41:21.563Z,1.92
2019-05-11T03:44:10.861Z,2.08
2019-05-11T03:46:59.935Z,1.98
2019-05-11T03:49:49.387Z,2.55
2019-05-11T03:52:39.002Z,2.25
2019-05-11T03:55:28.256Z,2.40
2019-05-11T03:58:17.344Z,2.33
2019-05-11T04:01:06.232Z,2.35
2019-05-11T04:03:55.901Z,1.98
2019-05-11T04:06:45.658Z,2.35
2019-05-11T04:09:34.624Z,2.27
2019-05-11T04:12:34.309Z,2.30
2019-05-11T04:15:15.108Z,2.25
2019-05-11T04:18:05.320Z,1.82
2019-05-11T04:20:54.792Z,2.25
2019-05-11T04:23:44.002Z,1.85
2019-05-11T04:26:33.016Z,2.90
2019-05-11T04:29:21.609Z,2.70
2019-05-11T04:32:10.119Z,2.25
2019-05-11T04:35:00.622Z,2.02
2019-05-11T04:37:50.037Z,2.20
2019-05-11T04:40:39.388Z,2.00
2019-05-11T04:43:29.116Z,2.27
2019-05-11T04:46:17.927Z,2.33
2019-05-11T04:49:07.245Z,2.20
2019-05-11T04:51:56.262Z,2.00
2019-05-11T04:54:45.645Z,2.20
2019-05-11T04:57:35.064Z,2.27
2019-05-11T05:00:25.729Z,2.30
2019-05-11T05:03:14.875Z,2.00
2019-05-11T05:06:22.286Z,2.20
2019-05-11T05:08:58.078Z,2.33
2019-05-11T05:11:46.109Z,2.30
2019-05-11T05:14:34.619Z,2.60
2019-05-11T05:17:23.578Z,2.27
2019-05-11T05:20:12.184Z,2.33
2019-05-11T05:23:00.950Z,2.33
2019-05-11T05:25:52.676Z,2.40
2019-05-11T05:28:45.575Z,2.30
2019-05-11T05:31:34.407Z,2.35
2019-05-11T05:34:24.779Z,2.33
2019-05-11T05:37:14.280Z,2.60
2019-05-11T05:40:03.695Z,2.15
2019-05-11T05:42:53.122Z,2.27
2019-05-11T05:45:44.287Z,2.00
2019-05-11T05:48:33.781Z,2.02
2019-05-11T05:51:23.508Z,1.98
2019-05-11T05:54:13.223Z,2.30
2019-05-11T05:57:02.522Z,2.33
2019-05-11T05:59:52.769Z,2.02
2019-05-11T06:02:42.749Z,2.62
2019-05-11T06:05:32.342Z,2.17
2019-05-11T06:08:23.241Z,2.80
2019-05-11T06:11:12.192Z,2.22
2019-05-11T06:14:01.567Z,2.40
2019-05-11T06:16:50.977Z,2.42
2019-05-11T06:19:40.472Z,2.33
2019-05-11T06:22:29.736Z,2.08
2019-05-11T06:25:19.009Z,2.25
2019-05-11T06:28:08.460Z,2.22
2019-05-11T06:30:58.403Z,2.08
2019-05-11T06:33:48.917Z,2.33
2019-05-11T06:36:37.743Z,2.30
2019-05-11T06:39:27.260Z,2.05
2019-05-11T06:42:18.196Z,2.60
2019-05-11T06:45:09.791Z,1.80
2019-05-11T06:47:59.107Z,2.10
2019-05-11T06:50:47.997Z,2.37
2019-05-11T06:53:37.203Z,2.10
2019-05-11T06:56:26.370Z,2.10
2019-05-11T06:59:15.016Z,1.70
2019-05-11T07:02:05.010Z,2.15
2019-05-11T07:04:54.233Z,2.25
2019-05-11T07:07:47.497Z,2.30
2019-05-11T07:10:34.210Z,1.90
2019-05-11T07:13:24.302Z,2.30
2019-05-11T07:16:13.610Z,2.20
2019-05-11T07:19:02.254Z,2.12
2019-05-11T07:21:51.394Z,2.60
2019-05-11T07:24:40.796Z,1.92
2019-05-11T07:27:29.879Z,3.17
2019-05-11T07:30:19.951Z,2.47
2019-05-11T07:33:09.382Z,2.35
2019-05-11T07:35:58.464Z,2.33
2019-05-11T07:38:48.720Z,2.40
2019-05-11T07:41:38.872Z,2.02
2019-05-11T07:44:37.876Z,2.45
2019-05-11T07:47:18.882Z,2.47
2019-05-11T07:50:08.687Z,2.87
2019-05-11T07:52:58.862Z,2.37
2019-05-11T07:55:48.692Z,2.77
2019-05-11T07:58:38.756Z,2.25
2019-05-11T08:01:28.435Z,2.55
2019-05-11T08:04:18.447Z,2.72
2019-05-11T08:07:07.811Z,2.25
2019-05-11T08:09:58.545Z,2.65
2019-05-11T08:12:48.065Z,2.90
2019-05-11T08:15:38.232Z,3.30
2019-05-11T08:18:28.217Z,2.37
2019-05-11T08:21:18.123Z,2.70
2019-05-11T08:24:09.141Z,2.70
2019-05-11T08:26:58.480Z,3.20
2019-05-11T08:29:48.759Z,2.90
2019-05-11T08:32:38.747Z,3.08
2019-05-11T08:35:31.030Z,2.75
2019-05-11T08:38:19.089Z,2.67
2019-05-11T08:41:08.893Z,3.00
2019-05-11T08:43:58.863Z,3.10
2019-05-11T08:46:49.054Z,3.27
2019-05-11T08:49:38.264Z,3.20
2019-05-11T08:52:28.040Z,3.10
2019-05-11T08:55:19.003Z,3.08
2019-05-11T08:58:08.921Z,3.10
2019-05-11T09:00:58.447Z,2.80
2019-05-11T09:03:48.322Z,3.12
2019-05-11T09:06:37.835Z,2.65
2019-05-11T09:09:28.728Z,2.70
2019-05-11T09:12:18.425Z,2.70
2019-05-11T09:15:08.973Z,2.47
2019-05-11T09:17:58.893Z,3.05
2019-05-11T09:20:48.733Z,2.75
2019-05-11T09:23:40.840Z,2.95
2019-05-11T09:26:29.635Z,2.90
2019-05-11T09:29:18.734Z,2.70
2019-05-11T09:32:08.967Z,2.40
2019-05-11T09:34:58.644Z,2.50
2019-05-11T09:37:48.680Z,2.47
2019-05-11T09:40:38.574Z,3.10
2019-05-11T09:43:28.463Z,2.83
2019-05-11T09:46:18.920Z,2.60
2019-05-11T09:49:08.204Z,2.70
2019-05-11T09:51:58.890Z,2.55
2019-05-11T09:54:48.835Z,2.80
2019-05-11T09:57:38.427Z,2.55
2019-05-11T10:00:28.274Z,3.20
2019-05-11T10:03:18.776Z,2.90
2019-05-11T10:06:08.643Z,3.00
2019-05-11T10:08:57.955Z,3.77
2019-05-11T10:11:47.972Z,2.95
2019-05-11T10:14:38.365Z,3.40
2019-05-11T10:17:28.802Z,2.95
2019-05-11T10:20:18.409Z,2.60
2019-05-11T10:23:08.429Z,3.15
2019-05-11T10:25:58.612Z,2.35
2019-05-11T10:28:48.780Z,2.80
2019-05-11T10:31:38.749Z,2.30
2019-05-11T10:34:28.749Z,2.30
2019-05-11T10:37:18.386Z,2.47
2019-05-11T10:40:09.568Z,2.80
2019-05-11T10:42:59.320Z,2.20
2019-05-11T10:45:48.552Z,2.08
2019-05-11T10:48:38.887Z,2.25
2019-05-11T10:51:28.947Z,2.62
2019-05-11T10:54:18.709Z,2.10
2019-05-11T10:57:08.472Z,2.00
2019-05-11T10:59:58.102Z,2.22
2019-05-11T11:02:47.933Z,2.60
2019-05-11T11:05:38.466Z,2.20
2019-05-11T11:08:28.179Z,2.10
2019-05-11T11:11:18.482Z,2.08
2019-05-11T11:14:08.712Z,1.85
2019-05-11T11:16:58.481Z,1.72
2019-05-11T11:19:48.611Z,2.15
2019-05-11T11:22:43.431Z,1.87
2019-05-11T11:25:29.155Z,1.95
2019-05-11T11:28:17.889Z,1.87
2019-05-11T11:31:07.782Z,1.80
2019-05-11T11:33:58.481Z,2.00
2019-05-11T11:36:48.546Z,2.17
2019-05-11T11:39:38.834Z,2.05
2019-05-11T11:42:28.492Z,1.98
2019-05-11T11:45:18.393Z,2.05
2019-05-11T11:48:08.795Z,1.92
2019-05-11T11:50:58.602Z,1.57
2019-05-11T11:53:48.225Z,1.75
2019-05-11T11:56:38.163Z,1.80
2019-05-11T11:59:28.690Z,1.92
2019-05-11T12:02:19.058Z,2.00
2019-05-11T12:05:08.954Z,1.70
2019-05-11T12:07:58.660Z,1.70
2019-05-11T12:10:48.523Z,1.60
2019-05-11T12:13:38.360Z,1.92
2019-05-11T12:16:28.291Z,1.92
2019-05-11T12:19:18.741Z,1.50
2019-05-11T12:22:08.630Z,1.65
2019-05-11T12:24:59.063Z,1.80
2019-05-11T12:27:49.055Z,1.50
2019-05-11T12:30:38.784Z,1.50
2019-05-11T12:33:28.026Z,1.52
2019-05-11T12:36:18.743Z,1.47
2019-05-11T12:39:08.894Z,1.30
2019-05-11T12:41:58.386Z,1.62
2019-05-11T12:44:48.264Z,1.17
2019-05-11T12:47:38.633Z,1.47
2019-05-11T12:50:28.647Z,1.32
2019-05-11T12:53:18.691Z,1.60
2019-05-11T12:56:08.550Z,1.60
2019-05-11T12:58:58.344Z,1.47
2019-05-11T13:01:48.621Z,1.32
2019-05-11T13:04:38.583Z,1.30
2019-05-11T13:07:28.406Z,1.60
2019-05-11T13:10:18.667Z,1.27
2019-05-11T13:13:08.860Z,1.30
2019-05-11T13:15:58.763Z,1.35
2019-05-11T13:18:48.774Z,1.70
2019-05-11T13:21:38.578Z,1.20
2019-05-11T13:24:28.513Z,1.52
2019-05-11T13:27:18.093Z,1.10
2019-05-11T13:30:08.101Z,1.57
2019-05-11T13:32:58.261Z,1.20
2019-05-11T13:35:48.231Z,1.50
2019-05-11T13:38:38.813Z,1.45
2019-05-11T13:41:28.167Z,1.30
2019-05-11T13:44:18.686Z,1.37
2019-05-11T13:47:08.631Z,1.47
2019-05-11T13:49:58.678Z,1.47
2019-05-11T13:52:47.960Z,1.25
2019-05-11T13:55:38.829Z,1.40
2019-05-11T13:58:27.778Z,1.57
2019-05-11T14:01:18.394Z,1.52
2019-05-11T14:04:08.529Z,1.60
2019-05-11T14:06:58.650Z,1.30
2019-05-11T14:09:48.595Z,1.75
2019-05-11T14:12:38.690Z,1.52
2019-05-11T14:15:28.674Z,1.80
2019-05-11T14:18:18.254Z,1.32
2019-05-11T14:21:08.132Z,1.40
2019-05-11T14:23:58.818Z,1.10
2019-05-11T14:26:48.958Z,1.35
2019-05-11T14:29:38.656Z,1.52
2019-05-11T14:32:28.604Z,1.62
2019-05-11T14:35:18.780Z,1.20
2019-05-11T14:38:08.656Z,1.60
2019-05-11T14:40:58.630Z,1.50
2019-05-11T14:43:48.988Z,1.30
2019-05-11T14:46:38.647Z,1.62
2019-05-11T14:49:28.046Z,1.52
2019-05-11T14:52:18.808Z,1.60
2019-05-11T14:55:08.184Z,1.40
2019-05-11T14:57:57.854Z,1.20
2019-05-11T15:00:48.719Z,1.45
2019-05-11T15:03:38.081Z,1.20
2019-05-11T15:06:27.915Z,1.30
2019-05-11T15:09:18.372Z,1.52
2019-05-11T15:12:08.646Z,1.40
2019-05-11T15:14:59.163Z,1.62
2019-05-11T15:17:49.538Z,1.30
2019-05-11T15:20:39.170Z,1.50
2019-05-11T15:23:28.599Z,1.50
2019-05-11T15:26:18.842Z,1.32
2019-05-11T15:29:08.401Z,1.20
2019-05-11T15:31:57.871Z,1.10
2019-05-11T15:34:48.807Z,1.12
2019-05-11T15:37:38.554Z,1.37
2019-05-11T15:40:28.010Z,1.20
2019-05-11T15:43:18.105Z,1.20
2019-05-11T15:46:07.283Z,1.32
2019-05-11T15:49:02.971Z,1.45
2019-05-11T15:51:48.871Z,1.10
2019-05-11T15:54:38.742Z,1.10
2019-05-11T15:57:28.912Z,1.20
2019-05-11T16:00:19.759Z,1.37
2019-05-11T16:03:08.732Z,1.15
2019-05-11T16:05:58.346Z,1.22
2019-05-11T16:08:47.755Z,1.30
2019-05-11T16:11:38.513Z,1.20
2019-05-11T16:14:28.224Z,1.32
2019-05-11T16:17:17.453Z,1.75
2019-05-11T16:20:08.804Z,1.37
2019-05-11T16:22:57.656Z,1.17
2019-05-11T16:25:48.883Z,1.00
2019-05-11T16:28:38.353Z,1.60
2019-05-11T16:31:28.542Z,1.00
2019-05-11T16:34:18.517Z,1.10
2019-05-11T16:37:10.200Z,1.20
2019-05-11T16:39:59.971Z,1.30
2019-05-11T16:42:49.596Z,1.00
2019-05-11T16:45:39.100Z,1.45
2019-05-11T16:48:28.148Z,1.00
2019-05-11T16:51:17.876Z,1.60
2019-05-11T16:54:07.643Z,1.40
2019-05-11T16:56:57.927Z,1.07
2019-05-11T16:59:48.355Z,1.12
2019-05-11T17:02:38.346Z,1.00
2019-05-11T17:05:33.263Z,1.27
2019-05-11T17:08:18.746Z,1.30
2019-05-11T17:11:08.523Z,1.00
2019-05-11T17:13:57.583Z,1.20
2019-05-11T17:16:48.183Z,1.52
2019-05-11T17:19:43.673Z,1.35
2019-05-11T17:22:28.721Z,1.25
2019-05-11T17:25:19.139Z,0.82
2019-05-11T17:28:10.065Z,1.07
2019-05-11T17:31:02.827Z,1.50
2019-05-11T17:33:50.540Z,1.05
2019-05-11T17:36:39.177Z,1.10
2019-05-11T17:39:28.289Z,1.72
2019-05-11T17:42:18.271Z,1.37
2019-05-11T17:45:08.925Z,1.25
2019-05-11T17:47:58.901Z,1.37
2019-05-11T17:50:48.302Z,1.20
2019-05-11T17:53:37.902Z,1.40
2019-05-11T17:56:27.989Z,1.12
2019-05-11T17:59:16.672Z,1.30
2019-05-11T18:02:06.137Z,1.27
2019-05-11T18:04:55.132Z,1.10
2019-05-11T18:07:44.568Z,1.20
2019-05-11T18:10:34.020Z,1.02
2019-05-11T18:13:23.636Z,1.10
2019-05-11T18:16:12.931Z,1.17
2019-05-11T18:19:01.645Z,1.95
2019-05-11T18:21:50.964Z,1.27
2019-05-11T18:24:40.295Z,1.82
2019-05-11T18:30:40.610Z,1.17
2019-05-11T18:33:31.029Z,1.22
2019-05-11T18:36:23.110Z,1.10
2019-05-11T18:39:12.521Z,1.07
2019-05-11T18:42:02.124Z,1.12
2019-05-11T18:44:51.549Z,1.37
2019-05-11T18:47:42.853Z,1.07
2019-05-11T18:50:33.935Z,1.02
2019-05-11T18:53:25.428Z,0.82
2019-05-11T18:56:15.423Z,1.22
2019-05-11T18:59:08.863Z,1.20
2019-05-11T19:02:01.330Z,1.05
2019-05-11T19:04:52.250Z,1.17
2019-05-11T19:07:45.037Z,0.80
2019-05-11T19:10:35.078Z,1.00
2019-05-11T19:13:28.156Z,1.10
2019-05-11T19:16:18.730Z,1.10
2019-05-11T19:19:08.506Z,1.00
2019-05-11T19:22:02.362Z,1.20
2019-05-11T19:24:53.130Z,1.20
2019-05-11T19:27:44.121Z,1.35
2019-05-11T19:30:34.449Z,1.10
2019-05-11T19:33:23.801Z,1.07
2019-05-11T19:36:14.699Z,1.05
2019-05-11T19:39:05.344Z,0.90
2019-05-11T19:41:55.319Z,1.20
2019-05-11T19:44:47.850Z,1.10
2019-05-11T19:47:37.864Z,1.40
2019-05-11T19:50:28.477Z,1.10
2019-05-11T19:53:18.843Z,1.10
2019-05-11T19:56:09.084Z,1.20
2019-05-11T19:58:58.414Z,1.12
2019-05-11T20:01:52.978Z,1.35
2019-05-11T20:04:44.823Z,0.93
2019-05-11T20:07:34.397Z,0.95
2019-05-11T20:10:27.723Z,1.15
2019-05-11T20:13:18.342Z,1.02
2019-05-11T20:16:08.444Z,1.05
2019-05-11T20:18:59.918Z,1.10
2019-05-11T20:21:50.758Z,1.10
2019-05-11T20:24:40.288Z,0.95
2019-05-11T20:27:29.539Z,0.90
2019-05-11T20:30:19.627Z,1.10
2019-05-11T20:33:13.279Z,1.20
2019-05-11T20:36:03.661Z,1.25
2019-05-11T20:38:55.947Z,1.12
2019-05-11T20:41:47.983Z,0.98
2019-05-11T20:44:39.576Z,1.20
2019-05-11T20:47:29.347Z,1.15
2019-05-11T20:50:18.888Z,1.17
2019-05-11T20:53:11.296Z,1.00
2019-05-11T20:56:01.835Z,1.40
2019-05-11T20:58:55.533Z,1.12
2019-05-11T21:01:49.392Z,1.20
2019-05-11T21:04:40.309Z,1.27
2019-05-11T21:07:29.629Z,1.20
2019-05-11T21:10:24.441Z,0.85
2019-05-11T21:13:18.124Z,1.30
2019-05-11T21:16:08.776Z,1.10
2019-05-11T21:19:00.602Z,1.10
2019-05-11T21:21:53.909Z,1.10
2019-05-11T21:24:49.714Z,1.12
2019-05-11T21:27:42.645Z,1.37
2019-05-11T21:30:39.676Z,1.12
2019-05-11T21:33:30.651Z,0.98
2019-05-11T21:36:25.570Z,1.20
2019-05-11T21:39:19.491Z,1.30
2019-05-11T21:42:13.648Z,1.10
2019-05-11T21:45:04.136Z,1.07
2019-05-11T21:47:54.861Z,0.80
2019-05-11T21:50:49.162Z,1.37
2019-05-11T21:53:39.671Z,1.05
2019-05-11T21:56:30.705Z,0.90
2019-05-11T21:59:27.526Z,0.90
2019-05-11T22:02:25.082Z,0.90
2019-05-11T22:05:15.386Z,0.95
2019-05-11T22:08:22.471Z,1.00
2019-05-11T22:11:14.244Z,0.90
2019-05-11T22:14:09.135Z,0.65
2019-05-11T22:17:02.503Z,0.82
2019-05-11T22:19:51.847Z,0.98
2019-05-11T22:22:41.589Z,0.90
2019-05-11T22:25:31.946Z,1.00
2019-05-11T22:28:22.953Z,0.80
2019-05-11T22:31:18.291Z,0.68
2019-05-11T22:34:08.947Z,0.95
2019-05-11T22:37:05.267Z,0.70
2019-05-11T22:39:57.884Z,0.78
2019-05-11T22:42:48.524Z,0.78
2019-05-11T22:45:42.057Z,0.78
2019-05-11T22:48:32.681Z,0.78
2019-05-11T22:51:24.695Z,0.90
2019-05-11T22:54:20.650Z,0.85
2019-05-11T22:57:11.097Z,0.90
2019-05-11T23:00:02.643Z,0.88
2019-05-11T23:02:52.385Z,0.75
2019-05-11T23:05:47.682Z,0.68
2019-05-11T23:08:37.367Z,1.00
2019-05-11T23:11:49.805Z,0.90
2019-05-11T23:14:48.276Z,0.90
2019-05-11T23:17:38.609Z,0.88
2019-05-11T23:20:32.435Z,0.68
2019-05-11T23:23:30.881Z,0.88
2019-05-11T23:26:24.952Z,0.80
2019-05-11T23:29:18.479Z,0.80
2019-05-11T23:32:13.486Z,0.93
2019-05-11T23:35:08.152Z,0.55
2019-05-11T23:38:02.203Z,1.02
2019-05-11T23:40:52.321Z,0.90
2019-05-11T23:43:47.753Z,0.60
2019-05-11T23:46:41.638Z,0.80
2019-05-11T23:49:42.988Z,0.80
2019-05-11T23:52:34.819Z,0.93
2019-05-11T23:55:29.148Z,0.85
2019-05-11T23:58:19.616Z,1.00
